createdAt,value
2022-10-29T00:01:01.358Z,13.55
2022-10-29T00:06:06.486Z,13.52
2022-10-29T00:11:09.562Z,13.57
2022-10-29T00:16:11.729Z,13.56
2022-10-29T00:21:11.951Z,13.50
2022-10-29T00:26:08.993Z,13.54
2022-10-29T00:31:09.672Z,13.51
2022-10-29T00:36:09.344Z,13.56
2022-10-29T00:41:08.045Z,13.50
2022-10-29T00:46:14.001Z,13.50
2022-10-29T00:51:13.467Z,13.47
2022-10-29T00:56:11.168Z,13.47
2022-10-29T01:01:07.928Z,13.41
2022-10-29T01:06:05.228Z,13.44
2022-10-29T01:11:26.370Z,13.47
2022-10-29T01:17:07.308Z,13.52
2022-10-29T01:22:16.488Z,13.52
2022-10-29T01:27:43.697Z,13.41
2022-10-29T01:33:12.467Z,13.33
2022-10-29T01:38:22.883Z,13.33
2022-10-29T01:43:27.419Z,13.27
2022-10-29T01:48:33.082Z,13.18
2022-10-29T01:53:31.532Z,13.11
2022-10-29T01:58:27.810Z,13.03
2022-10-29T02:03:53.462Z,12.91
2022-10-29T02:09:28.083Z,12.86
2022-10-29T02:14:33.773Z,12.78
2022-10-29T02:19:35.696Z,12.77
2022-10-29T02:24:32.015Z,12.78
2022-10-29T02:29:28.319Z,12.74
2022-10-29T02:34:24.777Z,12.80
2022-10-29T02:39:21.135Z,12.80
2022-10-29T02:44:17.492Z,12.82
2022-10-29T02:49:13.890Z,12.78
2022-10-29T02:54:10.286Z,12.54
2022-10-29T02:59:09.233Z,12.51
2022-10-29T03:04:08.101Z,12.39
2022-10-29T03:09:04.834Z,12.39
2022-10-29T03:14:01.271Z,12.43
2022-10-29T03:18:57.643Z,12.39
2022-10-29T03:23:54.055Z,12.37
2022-10-29T03:28:50.575Z,12.33
2022-10-29T03:33:46.992Z,12.26
2022-10-29T03:38:43.306Z,12.27
2022-10-29T03:43:40.006Z,12.10
2022-10-29T03:48:36.397Z,12.14
2022-10-29T03:53:34.738Z,12.18
2022-10-29T03:58:31.108Z,12.02
2022-10-29T04:03:29.059Z,12.11
2022-10-29T04:08:25.957Z,12.16
2022-10-29T04:13:22.466Z,12.12
2022-10-29T04:18:18.783Z,12.15
2022-10-29T04:26:42.155Z,12.16
2022-10-29T04:28:43.476Z,12.16
2022-10-29T04:33:40.404Z,12.21
2022-10-29T04:38:36.752Z,12.17
2022-10-29T04:43:33.088Z,12.23
2022-10-29T04:48:29.728Z,12.29
2022-10-29T04:53:26.054Z,12.49
2022-10-29T04:58:22.398Z,12.49
2022-10-29T05:03:18.729Z,12.55
2022-10-29T05:08:15.311Z,12.52
2022-10-29T05:13:12.438Z,12.52
2022-10-29T05:18:10.230Z,12.54
2022-10-29T05:23:08.525Z,12.53
2022-10-29T05:28:11.308Z,12.52
2022-10-29T05:33:09.067Z,12.52
2022-10-29T05:38:06.025Z,12.58
2022-10-29T05:43:02.481Z,12.61
2022-10-29T05:48:01.419Z,12.66
2022-10-29T05:53:00.277Z,12.67
2022-10-29T05:57:58.116Z,12.59
2022-10-29T06:02:55.344Z,12.73
2022-10-29T06:08:00.224Z,12.68
2022-10-29T06:12:56.919Z,12.61
2022-10-29T06:17:53.586Z,12.59
2022-10-29T06:22:57.908Z,12.56
2022-10-29T06:28:01.223Z,12.54
2022-10-29T06:32:58.176Z,12.55
2022-10-29T06:37:56.198Z,12.71
2022-10-29T06:43:02.719Z,12.70
2022-10-29T06:47:59.531Z,12.63
2022-10-29T06:53:00.794Z,12.71
2022-10-29T06:58:14.213Z,12.80
2022-10-29T07:03:15.421Z,12.82
2022-10-29T07:08:12.512Z,12.92
2022-10-29T07:13:09.586Z,13.11
2022-10-29T07:18:08.131Z,13.16
2022-10-29T07:23:04.913Z,13.20
2022-10-29T07:28:16.423Z,13.33
2022-10-29T07:33:12.832Z,13.47
2022-10-29T07:38:11.480Z,13.58
2022-10-29T07:43:08.899Z,13.78
2022-10-29T07:48:09.681Z,13.95
2022-10-29T07:53:08.095Z,13.99
2022-10-29T07:58:12.948Z,14.22
2022-10-29T08:03:11.601Z,14.42
2022-10-29T08:08:08.446Z,14.67
2022-10-29T08:13:06.017Z,14.93
2022-10-29T08:18:04.780Z,15.21
2022-10-29T08:23:01.824Z,15.35
2022-10-29T08:28:00.303Z,15.66
2022-10-29T08:32:57.407Z,15.82
2022-10-29T08:37:54.109Z,16.01
2022-10-29T08:43:18.513Z,16.09
2022-10-29T08:48:36.676Z,16.22
2022-10-29T08:53:54.133Z,16.23
2022-10-29T08:59:11.728Z,16.38
2022-10-29T09:04:21.878Z,16.58
2022-10-29T09:09:36.787Z,16.98
2022-10-29T09:15:01.222Z,17.32
2022-10-29T09:20:25.499Z,17.41
2022-10-29T09:25:31.937Z,17.57
2022-10-29T09:30:31.375Z,17.82
2022-10-29T09:35:38.432Z,18.15
2022-10-29T09:40:38.137Z,18.43
2022-10-29T09:45:48.508Z,18.89
2022-10-29T09:50:59.234Z,19.10
2022-10-29T09:55:55.744Z,19.51
2022-10-29T10:00:53.777Z,19.67
2022-10-29T10:06:05.762Z,19.84
2022-10-29T10:11:05.729Z,19.83
2022-10-29T10:16:04.462Z,19.61
2022-10-29T10:21:10.422Z,19.64
2022-10-29T10:26:26.591Z,19.90
2022-10-29T10:31:22.947Z,19.91
2022-10-29T10:36:24.956Z,19.94
2022-10-29T10:41:42.753Z,19.94
2022-10-29T10:46:42.794Z,20.25
2022-10-29T10:51:43.982Z,20.59
2022-10-29T10:57:12.841Z,20.67
2022-10-29T11:02:22.188Z,20.57
2022-10-29T11:07:19.162Z,20.60
2022-10-29T11:12:32.553Z,20.85
2022-10-29T11:17:35.586Z,20.79
2022-10-29T11:22:52.798Z,20.80
2022-10-29T11:28:07.631Z,20.69
2022-10-29T11:33:31.655Z,20.77
2022-10-29T11:38:33.672Z,20.91
2022-10-29T11:43:31.256Z,20.89
2022-10-29T11:48:40.383Z,21.26
2022-10-29T11:53:58.166Z,21.61
2022-10-29T11:59:04.695Z,21.75
2022-10-29T12:04:14.870Z,21.99
2022-10-29T12:09:46.581Z,22.28
2022-10-29T12:14:51.915Z,22.25
2022-10-29T12:20:10.568Z,22.04
2022-10-29T12:25:18.923Z,21.81
2022-10-29T12:30:18.145Z,21.85
2022-10-29T12:35:28.662Z,21.85
2022-10-29T12:40:29.912Z,21.93
2022-10-29T12:45:43.428Z,22.16
2022-10-29T12:51:11.098Z,22.81
2022-10-29T12:56:08.822Z,22.50
2022-10-29T13:01:05.383Z,22.37
2022-10-29T13:06:40.076Z,22.65
2022-10-29T13:12:04.535Z,22.63
2022-10-29T13:17:04.061Z,22.57
2022-10-29T13:22:25.131Z,22.97
2022-10-29T13:27:21.469Z,22.72
2022-10-29T13:32:37.509Z,22.42
2022-10-29T13:37:50.812Z,22.47
2022-10-29T13:42:56.643Z,22.70
2022-10-29T13:48:00.365Z,22.96
2022-10-29T13:53:00.678Z,23.13
2022-10-29T13:58:06.414Z,22.81
2022-10-29T14:03:20.760Z,22.44
2022-10-29T14:08:24.327Z,22.14
2022-10-29T14:13:33.926Z,22.17
2022-10-29T14:18:32.568Z,22.39
2022-10-29T14:23:31.095Z,22.48
2022-10-29T14:28:31.811Z,22.33
2022-10-29T14:33:31.394Z,22.06
2022-10-29T14:38:36.622Z,21.87
2022-10-29T14:43:34.901Z,21.52
2022-10-29T14:48:31.349Z,21.27
2022-10-29T14:53:32.446Z,21.11
2022-10-29T14:58:33.673Z,21.10
2022-10-29T15:03:33.439Z,20.98
2022-10-29T15:08:34.207Z,20.97
2022-10-29T15:13:33.984Z,20.64
2022-10-29T15:18:32.171Z,20.41
2022-10-29T15:23:35.384Z,20.23
2022-10-29T15:28:38.860Z,20.01
2022-10-29T15:33:37.049Z,19.74
2022-10-29T15:38:36.428Z,19.50
2022-10-29T15:43:32.728Z,19.34
2022-10-29T15:48:36.448Z,19.24
2022-10-29T15:53:32.848Z,19.12
2022-10-29T15:58:29.432Z,19.03
2022-10-29T16:03:27.132Z,18.83
2022-10-29T16:08:28.504Z,18.60
2022-10-29T16:13:26.918Z,18.46
2022-10-29T16:18:23.317Z,18.22
2022-10-29T16:23:19.636Z,18.06
2022-10-29T16:28:16.022Z,17.89
2022-10-29T16:33:12.507Z,17.66
2022-10-29T16:38:09.004Z,17.50
2022-10-29T16:43:05.581Z,17.34
2022-10-29T16:48:02.393Z,17.42
2022-10-29T16:53:06.087Z,17.37
2022-10-29T16:58:02.786Z,17.27
2022-10-29T17:03:03.592Z,17.30
2022-10-29T17:08:05.197Z,17.24
2022-10-29T17:13:01.768Z,17.20
2022-10-29T17:17:58.394Z,17.18
2022-10-29T17:22:55.127Z,17.03
2022-10-29T17:27:51.509Z,16.97
2022-10-29T17:32:47.832Z,16.88
2022-10-29T17:37:48.083Z,16.84
2022-10-29T17:42:44.390Z,16.84
2022-10-29T17:52:41.979Z,16.92
2022-10-29T17:57:38.389Z,16.90
2022-10-29T18:02:34.760Z,16.87
2022-10-29T18:07:31.185Z,16.85
2022-10-29T18:12:27.550Z,16.86
2022-10-29T18:17:24.042Z,16.96
2022-10-29T18:22:20.361Z,17.00
2022-10-29T18:27:16.718Z,17.00
2022-10-29T18:32:13.025Z,17.07
2022-10-29T18:37:09.449Z,17.09
2022-10-29T18:42:06.162Z,17.02
2022-10-29T18:47:02.675Z,16.92
2022-10-29T18:51:59.004Z,16.81
2022-10-29T18:56:55.435Z,16.80
2022-10-29T19:01:51.832Z,16.66
2022-10-29T19:06:48.345Z,16.72
2022-10-29T19:11:44.980Z,16.75
2022-10-29T19:16:41.506Z,16.67
2022-10-29T19:21:38.881Z,16.67
2022-10-29T19:26:36.322Z,16.64
2022-10-29T19:31:34.031Z,16.69
2022-10-29T19:36:30.759Z,16.70
2022-10-29T19:41:27.600Z,16.77
2022-10-29T19:46:24.136Z,16.76
2022-10-29T19:51:21.344Z,16.75
2022-10-29T19:56:18.510Z,16.76
2022-10-29T20:01:17.033Z,16.79
2022-10-29T20:06:14.581Z,16.72
2022-10-29T20:11:11.228Z,16.65
2022-10-29T20:16:18.642Z,16.60
2022-10-29T20:21:15.698Z,16.61
2022-10-29T20:26:12.555Z,16.58
2022-10-29T20:31:18.222Z,16.50
2022-10-29T20:36:14.626Z,16.46
2022-10-29T20:41:11.028Z,16.46
2022-10-29T20:46:07.349Z,16.43
2022-10-29T20:51:04.298Z,16.25
2022-10-29T20:56:00.604Z,16.26
2022-10-29T21:01:05.278Z,16.15
2022-10-29T21:06:07.610Z,16.13
2022-10-29T21:11:08.629Z,16.20
2022-10-29T21:16:19.692Z,16.12
2022-10-29T21:21:16.817Z,16.10
2022-10-29T21:26:16.257Z,16.13
2022-10-29T21:31:12.779Z,16.14
2022-10-29T21:36:12.943Z,16.12
2022-10-29T21:41:09.668Z,16.06
2022-10-29T21:46:06.479Z,16.07
2022-10-29T21:51:06.089Z,16.02
2022-10-29T21:56:05.388Z,15.98
2022-10-29T22:01:10.250Z,15.94
2022-10-29T22:06:10.560Z,15.93
2022-10-29T22:11:07.536Z,15.89
2022-10-29T22:16:05.097Z,15.82
2022-10-29T22:21:07.568Z,15.79
2022-10-29T22:26:03.896Z,15.80
2022-10-29T22:31:01.818Z,15.69
2022-10-29T22:36:09.081Z,15.58
2022-10-29T22:41:12.666Z,15.57
2022-10-29T22:46:10.341Z,15.46
2022-10-29T22:51:26.478Z,15.38
2022-10-29T22:56:28.540Z,15.30
2022-10-29T23:01:27.539Z,15.21
2022-10-29T23:06:24.531Z,15.07
2022-10-29T23:11:23.812Z,14.89
2022-10-29T23:16:21.032Z,14.79
2022-10-29T23:21:18.408Z,14.68
2022-10-29T23:26:15.302Z,14.36
2022-10-29T23:31:20.919Z,14.44
2022-10-29T23:36:18.679Z,14.71
2022-10-29T23:41:15.450Z,14.65
2022-10-29T23:46:11.782Z,14.57
2022-10-29T23:51:08.194Z,14.54
2022-10-29T23:56:04.911Z,14.45
